Time;durP1;ratioP1;P1;durP2;ratioP2;P2;SDS_P1;SDS_P2;PMS_P1;PMS_P2;Temp;Humidity;BMP_temperature;BMP_pressure;BME280_temperature;BME280_humidity;BME280_pressure;Samples;Min_cycle;Max_cycle;Signal;HPM_P1;HPM_P2
2023/08/06 00:01:22;;;;;;;;;;;;;;;;;;5091808;28;806;-68
2023/08/06 00:03:48;;;;;;;;;;;;;;;;;;5091325;28;1107;-69
2023/08/06 00:06:13;;;;;;;;;;;;;;;;;;5074035;28;899;-69
2023/08/06 00:08:38;;;;;;;;;;;;;;;;;;5091435;28;891;-68
2023/08/06 00:11:04;;;;;;;;;;;;;;;;;;5091031;28;911;-68
2023/08/06 00:13:29;;;;;;;;;;;;;;;;;;5091895;28;879;-68
2023/08/06 00:15:54;;;;;;;;;;;;;;;;;;5092066;28;1901;-68
2023/08/06 00:18:19;;;;;;;;;;;;;;;;;;5095129;28;911;-68
2023/08/06 00:20:45;;;;;;;;;;;;;;;;;;5097796;28;1036;-68
2023/08/06 00:23:10;;;;;;;;;;;;;;;;;;5098083;28;868;-68
2023/08/06 00:25:36;;;;;;;;;;;;;;;;;;5098207;28;868;-68
2023/08/06 00:28:01;;;;;;;;;;;;;;;;;;5097774;28;856;-68
2023/08/06 00:30:26;;;;;;;;;;;;;;;;;;5098252;28;891;-68
2023/08/06 00:32:52;;;;;;;;;;;;;;;;;;5098891;28;935;-68
2023/08/06 00:35:17;;;;;;;;;;;;;;;;;;5099199;28;1921;-68
2023/08/06 00:37:42;;;;;;;;;;;;;;;;;;5098759;28;906;-68
2023/08/06 00:40:08;;;;;;;;;;;;;;;;;;5099246;28;813;-68
2023/08/06 00:42:34;;;;;;;;;;;;;;;;;;5098827;28;852;-68
2023/08/06 00:44:59;;;;;;;;;;;;;;;;;;5098763;28;907;-68
2023/08/06 00:47:25;;;;;;;;;;;;;;;;;;5081013;28;951;-68
2023/08/06 00:49:50;;;;;;;;;;;;;;;;;;5098251;28;876;-68
2023/08/06 00:52:15;;;;;;;;;;;;;;;;;;5098529;28;823;-69
2023/08/06 00:54:41;;;;;;;;;;;;;;;;;;5098025;28;679;-68
2023/08/06 00:57:07;;;;;;;;;;;;;;;;;;5098881;28;2359;-68
2023/08/06 00:59:32;;;;;;;;;;;;;;;;;;5098698;28;1046;-69
2023/08/06 01:01:57;;;;;;;;;;;;;;;;;;5097748;28;867;-68
2023/08/06 01:04:23;;;;;;;;;;;;;;;;;;5098269;28;892;-68
2023/08/06 01:06:52;;;;;;;;;;;;;;;;;;5097315;28;888;-68
2023/08/06 01:09:17;;;;;;;;;;;;;;;;;;5097996;28;892;-68
2023/08/06 01:12:01;;;;;;;;;;;;;;;;;;5097707;28;935;-68
2023/08/06 01:14:26;;;;;;;;;;;;;;;;;;5097683;28;920;-68
2023/08/06 01:16:53;;;;;;;;;;;;;;;;;;5097141;28;1964;-69
2023/08/06 01:19:19;;;;;;;;;;;;;;;;;;5097572;28;1645;-69
2023/08/06 01:21:44;;;;;;;;;;;;;;;;;;5096524;28;1101;-68
2023/08/06 01:24:09;;;;;;;;;;;;;;;;;;5097673;28;859;-68
2023/08/06 01:26:57;;;;;;;;;;;;;;;;;;5097661;28;1006;-69
2023/08/06 01:29:25;;;;;;;;;;;;;;;;;;5096646;28;1482;-68
2023/08/06 01:31:51;;;;;;;;;;;;;;;;;;5093664;28;1035;-67
2023/08/06 01:34:19;;;;;;;;;;;;;;;;;;5095375;28;829;-67
2023/08/06 01:36:45;;;;;;;;;;;;;;;;;;5093917;28;1932;-68
2023/08/06 01:39:10;;;;;;;;;;;;;;;;;;5095053;28;872;-69
2023/08/06 01:41:35;;;;;;;;;;;;;;;;;;5094133;28;805;-68
2023/08/06 01:44:00;;;;;;;;;;;;;;;;;;5094118;28;919;-68
2023/08/06 01:46:26;;;;;;;;;;;;;;;;;;5094440;28;809;-68
2023/08/06 01:48:51;;;;;;;;;;;;;;;;;;5093568;28;919;-68
2023/08/06 01:51:16;;;;;;;;;;;;;;;;;;5094321;28;872;-68
2023/08/06 01:53:41;;;;;;;;;;;;;;;;;;5094076;28;876;-68
2023/08/06 01:56:07;;;;;;;;;;;;;;;;;;5075542;28;1955;-68
2023/08/06 01:58:32;;;;;;;;;;;;;;;;;;5093842;28;884;-68
2023/08/06 02:00:57;;;;;;;;;;;;;;;;;;5093533;28;889;-68
2023/08/06 02:03:23;;;;;;;;;;;;;;;;;;5076121;28;1131;-68
2023/08/06 02:05:48;;;;;;;;;;;;;;;;;;5093090;28;943;-68
2023/08/06 02:08:13;;;;;;;;;;;;;;;;;;5094289;28;848;-68
2023/08/06 02:10:38;;;;;;;;;;;;;;;;;;5093161;28;901;-68
2023/08/06 02:13:04;;;;;;;;;;;;;;;;;;5092778;28;927;-68
2023/08/06 02:15:29;;;;;;;;;;;;;;;;;;5093486;28;1943;-68
2023/08/06 02:17:55;;;;;;;;;;;;;;;;;;5093189;28;860;-68
2023/08/06 02:20:20;;;;;;;;;;;;;;;;;;5093955;28;1037;-67
2023/08/06 02:22:45;;;;;;;;;;;;;;;;;;5093129;28;825;-67
2023/08/06 02:25:11;;;;;;;;;;;;;;;;;;5093860;28;840;-67
2023/08/06 02:27:37;;;;;;;;;;;;;;;;;;5093811;28;817;-67
2023/08/06 02:30:03;;;;;;;;;;;;;;;;;;5093587;28;856;-67
2023/08/06 02:32:30;;;;;;;;;;;;;;;;;;5094411;28;835;-67
2023/08/06 02:34:55;;;;;;;;;;;;;;;;;;5093512;28;878;-67
2023/08/06 02:37:20;;;;;;;;;;;;;;;;;;5093887;28;1980;-67
2023/08/06 02:39:45;;;;;;;;;;;;;;;;;;5093155;28;1049;-67
2023/08/06 02:42:11;;;;;;;;;;;;;;;;;;5092809;28;1042;-67
2023/08/06 02:44:36;;;;;;;;;;;;;;;;;;5093639;28;899;-67
2023/08/06 02:47:01;;;;;;;;;;;;;;;;;;5092969;28;1113;-67
2023/08/06 02:49:27;;;;;;;;;;;;;;;;;;5093232;28;923;-67
2023/08/06 02:51:52;;;;;;;;;;;;;;;;;;5057404;28;2058;-67
2023/08/06 02:54:18;;;;;;;;;;;;;;;;;;5092943;28;892;-68
2023/08/06 02:56:44;;;;;;;;;;;;;;;;;;5092355;28;1902;-68
2023/08/06 02:59:10;;;;;;;;;;;;;;;;;;5093105;28;1219;-68
2023/08/06 03:01:36;;;;;;;;;;;;;;;;;;5092864;28;848;-68
2023/08/06 03:04:01;;;;;;;;;;;;;;;;;;5092229;28;919;-68
2023/08/06 03:06:26;;;;;;;;;;;;;;;;;;5092639;28;856;-68
2023/08/06 03:08:51;;;;;;;;;;;;;;;;;;5074228;28;896;-68
2023/08/06 03:11:17;;;;;;;;;;;;;;;;;;5092809;28;941;-67
2023/08/06 03:13:42;;;;;;;;;;;;;;;;;;5092779;28;1121;-68
2023/08/06 03:16:07;;;;;;;;;;;;;;;;;;5092268;28;1901;-68
2023/08/06 03:18:32;;;;;;;;;;;;;;;;;;5092758;28;793;-67
2023/08/06 03:20:58;;;;;;;;;;;;;;;;;;5092111;28;1298;-67
2023/08/06 03:23:23;;;;;;;;;;;;;;;;;;5093198;28;833;-67
2023/08/06 03:25:48;;;;;;;;;;;;;;;;;;5092733;28;856;-67
2023/08/06 03:28:14;;;;;;;;;;;;;;;;;;5093195;28;820;-67
2023/08/06 03:30:39;;;;;;;;;;;;;;;;;;5074731;28;984;-67
2023/08/06 03:33:04;;;;;;;;;;;;;;;;;;5092534;28;766;-67
2023/08/06 03:35:30;;;;;;;;;;;;;;;;;;5092843;28;1977;-67
2023/08/06 03:37:55;;;;;;;;;;;;;;;;;;5091841;28;943;-67
2023/08/06 03:40:21;;;;;;;;;;;;;;;;;;5092267;28;853;-67
2023/08/06 03:42:46;;;;;;;;;;;;;;;;;;5092266;28;801;-67
2023/08/06 03:45:11;;;;;;;;;;;;;;;;;;5092064;28;864;-67
2023/08/06 03:47:36;;;;;;;;;;;;;;;;;;5092057;28;1117;-67
2023/08/06 03:50:02;;;;;;;;;;;;;;;;;;5091300;28;915;-67
2023/08/06 03:52:27;;;;;;;;;;;;;;;;;;5091875;28;899;-67
2023/08/06 03:54:52;;;;;;;;;;;;;;;;;;5073554;28;904;-67
2023/08/06 03:57:18;;;;;;;;;;;;;;;;;;5091639;28;1915;-67
2023/08/06 03:59:43;;;;;;;;;;;;;;;;;;5091448;28;903;-67
2023/08/06 04:02:08;;;;;;;;;;;;;;;;;;5091404;28;843;-67
2023/08/06 04:04:33;;;;;;;;;;;;;;;;;;5092164;28;891;-67
2023/08/06 04:06:59;;;;;;;;;;;;;;;;;;5091305;28;891;-67
2023/08/06 04:09:24;;;;;;;;;;;;;;;;;;5092041;28;902;-67
2023/08/06 04:11:49;;;;;;;;;;;;;;;;;;5090949;28;1037;-67
2023/08/06 04:14:14;;;;;;;;;;;;;;;;;;5091758;28;970;-67
2023/08/06 04:16:40;;;;;;;;;;;;;;;;;;5091450;28;1909;-67
2023/08/06 04:19:05;;;;;;;;;;;;;;;;;;5091142;28;836;-68
2023/08/06 04:21:30;;;;;;;;;;;;;;;;;;5091498;28;1187;-67
2023/08/06 04:23:56;;;;;;;;;;;;;;;;;;5091051;28;995;-68
2023/08/06 04:26:21;;;;;;;;;;;;;;;;;;5091222;28;933;-68
2023/08/06 04:28:46;;;;;;;;;;;;;;;;;;5091648;28;971;-68
2023/08/06 04:31:12;;;;;;;;;;;;;;;;;;5092492;28;1073;-68
2023/08/06 04:33:37;;;;;;;;;;;;;;;;;;5092539;28;821;-68
2023/08/06 04:36:02;;;;;;;;;;;;;;;;;;5091538;28;2008;-68
2023/08/06 04:38:27;;;;;;;;;;;;;;;;;;5092252;28;852;-68
2023/08/06 04:40:53;;;;;;;;;;;;;;;;;;5091948;28;898;-68
2023/08/06 04:43:18;;;;;;;;;;;;;;;;;;5092074;28;912;-68
2023/08/06 04:45:47;;;;;;;;;;;;;;;;;;5092173;28;1030;-68
2023/08/06 04:48:12;;;;;;;;;;;;;;;;;;5092059;28;828;-68
2023/08/06 04:50:38;;;;;;;;;;;;;;;;;;5092198;28;1010;-68
2023/08/06 04:53:03;;;;;;;;;;;;;;;;;;5091857;28;971;-68
2023/08/06 04:55:28;;;;;;;;;;;;;;;;;;5091507;28;1897;-68
2023/08/06 04:57:54;;;;;;;;;;;;;;;;;;5091489;28;856;-67
2023/08/06 05:00:19;;;;;;;;;;;;;;;;;;5091804;28;786;-68
2023/08/06 05:02:44;;;;;;;;;;;;;;;;;;5091613;28;817;-67
2023/08/06 05:05:09;;;;;;;;;;;;;;;;;;5092957;28;774;-68
2023/08/06 05:07:34;;;;;;;;;;;;;;;;;;5077807;28;870;-68
2023/08/06 05:10:00;;;;;;;;;;;;;;;;;;5094642;28;962;-68
2023/08/06 05:12:25;;;;;;;;;;;;;;;;;;5096100;28;821;-68
2023/08/06 05:14:51;;;;;;;;;;;;;;;;;;5094732;28;805;-67
2023/08/06 05:17:16;;;;;;;;;;;;;;;;;;5095142;28;1902;-67
2023/08/06 05:19:41;;;;;;;;;;;;;;;;;;5094861;28;1285;-68
2023/08/06 05:22:06;;;;;;;;;;;;;;;;;;5094494;28;828;-68
2023/08/06 05:24:31;;;;;;;;;;;;;;;;;;5094911;28;805;-68
2023/08/06 05:27:00;;;;;;;;;;;;;;;;;;5094305;28;900;-68
2023/08/06 05:29:27;;;;;;;;;;;;;;;;;;5094699;28;999;-68
2023/08/06 05:31:52;;;;;;;;;;;;;;;;;;5074956;28;1485;-68
2023/08/06 05:34:17;;;;;;;;;;;;;;;;;;5091731;28;1184;-69
2023/08/06 05:36:42;;;;;;;;;;;;;;;;;;5092692;28;1965;-69
2023/08/06 05:39:08;;;;;;;;;;;;;;;;;;5093488;28;916;-69
2023/08/06 05:41:33;;;;;;;;;;;;;;;;;;5094526;28;880;-69
2023/08/06 05:43:58;;;;;;;;;;;;;;;;;;5093886;28;876;-68
2023/08/06 05:46:23;;;;;;;;;;;;;;;;;;5094487;28;821;-68
2023/08/06 05:48:50;;;;;;;;;;;;;;;;;;5094917;28;820;-68
2023/08/06 05:51:16;;;;;;;;;;;;;;;;;;5093950;28;867;-69
2023/08/06 05:53:41;;;;;;;;;;;;;;;;;;5094174;28;887;-69
2023/08/06 05:56:07;;;;;;;;;;;;;;;;;;5093387;28;1893;-68
2023/08/06 05:58:32;;;;;;;;;;;;;;;;;;5093985;28;931;-69
2023/08/06 06:00:57;;;;;;;;;;;;;;;;;;5093537;28;982;-68
2023/08/06 06:03:23;;;;;;;;;;;;;;;;;;5076499;28;895;-69
2023/08/06 06:05:48;;;;;;;;;;;;;;;;;;5093990;28;892;-69
2023/08/06 06:08:13;;;;;;;;;;;;;;;;;;5093323;28;951;-69
2023/08/06 06:10:38;;;;;;;;;;;;;;;;;;5093879;28;984;-69
2023/08/06 06:13:04;;;;;;;;;;;;;;;;;;5093003;28;1079;-69
2023/08/06 06:15:29;;;;;;;;;;;;;;;;;;5093963;28;1906;-69
2023/08/06 06:17:54;;;;;;;;;;;;;;;;;;5094180;28;983;-69
2023/08/06 06:20:20;;;;;;;;;;;;;;;;;;5094119;28;1394;-69
2023/08/06 06:22:45;;;;;;;;;;;;;;;;;;5094451;28;1050;-69
2023/08/06 06:25:10;;;;;;;;;;;;;;;;;;5076082;28;853;-69
2023/08/06 06:27:35;;;;;;;;;;;;;;;;;;5094144;28;1042;-69
2023/08/06 06:30:01;;;;;;;;;;;;;;;;;;5094002;28;877;-68
2023/08/06 06:32:26;;;;;;;;;;;;;;;;;;5094917;28;821;-68
2023/08/06 06:34:51;;;;;;;;;;;;;;;;;;5075974;28;841;-68
2023/08/06 06:37:16;;;;;;;;;;;;;;;;;;5094113;28;1906;-68
2023/08/06 06:39:42;;;;;;;;;;;;;;;;;;5094486;28;825;-68
2023/08/06 06:42:07;;;;;;;;;;;;;;;;;;5094093;28;861;-69
2023/08/06 06:44:32;;;;;;;;;;;;;;;;;;5094321;28;879;-69
2023/08/06 06:46:58;;;;;;;;;;;;;;;;;;5093409;28;1239;-70
2023/08/06 06:49:23;;;;;;;;;;;;;;;;;;5094190;28;938;-69
2023/08/06 06:51:48;;;;;;;;;;;;;;;;;;5093349;28;951;-67
2023/08/06 06:54:13;;;;;;;;;;;;;;;;;;5092525;28;1062;-66
2023/08/06 06:56:39;;;;;;;;;;;;;;;;;;5092570;28;1889;-69
2023/08/06 06:59:04;;;;;;;;;;;;;;;;;;5092114;28;908;-69
2023/08/06 07:01:29;;;;;;;;;;;;;;;;;;5091742;28;1200;-69
2023/08/06 07:03:55;;;;;;;;;;;;;;;;;;5090451;28;931;-69
2023/08/06 07:06:20;;;;;;;;;;;;;;;;;;5091651;28;871;-69
2023/08/06 07:08:45;;;;;;;;;;;;;;;;;;5092240;28;1224;-69
2023/08/06 07:11:11;;;;;;;;;;;;;;;;;;5092497;28;1035;-70
2023/08/06 07:13:36;;;;;;;;;;;;;;;;;;5092868;28;807;-69
2023/08/06 07:16:01;;;;;;;;;;;;;;;;;;5091598;28;1961;-69
2023/08/06 07:18:27;;;;;;;;;;;;;;;;;;5091190;28;900;-70
2023/08/06 07:20:53;;;;;;;;;;;;;;;;;;5073876;28;1798;-68
2023/08/06 07:23:22;;;;;;;;;;;;;;;;;;5093014;28;1061;-68
2023/08/06 07:25:47;;;;;;;;;;;;;;;;;;5092516;28;991;-68
2023/08/06 07:28:13;;;;;;;;;;;;;;;;;;5091214;28;836;-68
2023/08/06 07:30:39;;;;;;;;;;;;;;;;;;5092653;28;892;-68
2023/08/06 07:33:05;;;;;;;;;;;;;;;;;;5092602;28;809;-68
2023/08/06 07:35:30;;;;;;;;;;;;;;;;;;5092492;28;1922;-68
2023/08/06 07:37:55;;;;;;;;;;;;;;;;;;5091394;28;1105;-68
2023/08/06 07:40:20;;;;;;;;;;;;;;;;;;5090958;28;1158;-68
2023/08/06 07:42:46;;;;;;;;;;;;;;;;;;5092701;28;889;-68
2023/08/06 07:45:11;;;;;;;;;;;;;;;;;;5091628;28;809;-68
2023/08/06 07:47:36;;;;;;;;;;;;;;;;;;5092099;28;927;-68
2023/08/06 07:50:01;;;;;;;;;;;;;;;;;;5092188;28;910;-68
2023/08/06 07:52:27;;;;;;;;;;;;;;;;;;5092263;28;812;-68
2023/08/06 07:54:52;;;;;;;;;;;;;;;;;;5091858;28;955;-68
2023/08/06 07:57:18;;;;;;;;;;;;;;;;;;5091594;28;1914;-68
2023/08/06 07:59:43;;;;;;;;;;;;;;;;;;5092445;28;879;-68
2023/08/06 08:02:08;;;;;;;;;;;;;;;;;;5091576;28;979;-68
2023/08/06 08:04:33;;;;;;;;;;;;;;;;;;5092843;28;931;-68
2023/08/06 08:06:59;;;;;;;;;;;;;;;;;;5092567;28;852;-68
2023/08/06 08:09:24;;;;;;;;;;;;;;;;;;5092884;28;975;-68
2023/08/06 08:11:50;;;;;;;;;;;;;;;;;;5092786;28;1042;-68
2023/08/06 08:14:15;;;;;;;;;;;;;;;;;;5093723;28;808;-68
2023/08/06 08:16:41;;;;;;;;;;;;;;;;;;5093360;28;1898;-68
2023/08/06 08:19:06;;;;;;;;;;;;;;;;;;5092665;28;606;-68
2023/08/06 08:21:31;;;;;;;;;;;;;;;;;;5092782;28;1142;-68
2023/08/06 08:23:56;;;;;;;;;;;;;;;;;;5092838;28;1066;-68
2023/08/06 08:26:22;;;;;;;;;;;;;;;;;;5092499;28;904;-67
2023/08/06 08:28:47;;;;;;;;;;;;;;;;;;5092519;28;817;-68
2023/08/06 08:31:12;;;;;;;;;;;;;;;;;;5091558;28;845;-68
2023/08/06 08:33:38;;;;;;;;;;;;;;;;;;5091562;28;1152;-68
2023/08/06 08:36:03;;;;;;;;;;;;;;;;;;5091111;28;1967;-68
2023/08/06 08:38:28;;;;;;;;;;;;;;;;;;5091510;28;935;-68
2023/08/06 08:40:54;;;;;;;;;;;;;;;;;;5095949;28;871;-68
2023/08/06 08:43:23;;;;;;;;;;;;;;;;;;5076527;28;1176;-68
2023/08/06 08:45:51;;;;;;;;;;;;;;;;;;5094797;28;861;-68
2023/08/06 08:48:17;;;;;;;;;;;;;;;;;;5094587;28;856;-68
2023/08/06 08:50:46;;;;;;;;;;;;;;;;;;5094644;28;832;-68
2023/08/06 08:53:13;;;;;;;;;;;;;;;;;;5094229;28;832;-68
2023/08/06 08:55:39;;;;;;;;;;;;;;;;;;5095000;28;1890;-67
2023/08/06 08:58:04;;;;;;;;;;;;;;;;;;5094633;28;924;-68
2023/08/06 09:00:29;;;;;;;;;;;;;;;;;;5076483;28;829;-67
2023/08/06 09:02:55;;;;;;;;;;;;;;;;;;5094587;28;949;-67
2023/08/06 09:05:21;;;;;;;;;;;;;;;;;;5094909;28;931;-67
2023/08/06 09:07:48;;;;;;;;;;;;;;;;;;5077142;28;1245;-67
2023/08/06 09:10:17;;;;;;;;;;;;;;;;;;5093844;28;1093;-67
2023/08/06 09:12:43;;;;;;;;;;;;;;;;;;5094684;28;911;-68
2023/08/06 09:15:08;;;;;;;;;;;;;;;;;;5093956;28;897;-67
2023/08/06 09:17:33;;;;;;;;;;;;;;;;;;5094196;28;1955;-67
2023/08/06 09:19:59;;;;;;;;;;;;;;;;;;5093383;28;998;-67
2023/08/06 09:22:24;;;;;;;;;;;;;;;;;;5094597;28;902;-67
2023/08/06 09:24:49;;;;;;;;;;;;;;;;;;5094364;28;879;-67
2023/08/06 09:27:15;;;;;;;;;;;;;;;;;;5093325;28;900;-67
2023/08/06 09:29:41;;;;;;;;;;;;;;;;;;5094305;28;817;-67
2023/08/06 09:32:07;;;;;;;;;;;;;;;;;;5093920;28;824;-67
2023/08/06 09:34:32;;;;;;;;;;;;;;;;;;5093895;28;1002;-68
2023/08/06 09:36:57;;;;;;;;;;;;;;;;;;5093786;28;1913;-67
2023/08/06 09:39:29;;;;;;;;;;;;;;;;;;5059951;28;844;-68
2023/08/06 09:41:58;;;;;;;;;;;;;;;;;;5094760;28;967;-67
2023/08/06 09:44:25;;;;;;;;;;;;;;;;;;5095047;28;785;-68
2023/08/06 09:46:51;;;;;;;;;;;;;;;;;;5093927;28;919;-67
2023/08/06 09:49:20;;;;;;;;;;;;;;;;;;5094336;28;892;-68
2023/08/06 09:51:51;;;;;;;;;;;;;;;;;;5093920;28;903;-68
2023/08/06 09:54:18;;;;;;;;;;;;;;;;;;5094481;28;936;-68
2023/08/06 09:56:43;;;;;;;;;;;;;;;;;;5094197;28;1961;-68
2023/08/06 09:59:08;;;;;;;;;;;;;;;;;;5094254;28;970;-68
2023/08/06 10:01:34;;;;;;;;;;;;;;;;;;5094094;28;1164;-68
2023/08/06 10:04:00;;;;;;;;;;;;;;;;;;5093987;28;920;-68
2023/08/06 10:06:26;;;;;;;;;;;;;;;;;;5094558;28;895;-68
2023/08/06 10:08:51;;;;;;;;;;;;;;;;;;5094358;28;771;-68
2023/08/06 10:11:17;;;;;;;;;;;;;;;;;;5093957;28;904;-67
2023/08/06 10:13:43;;;;;;;;;;;;;;;;;;5094546;28;896;-67
2023/08/06 10:16:08;;;;;;;;;;;;;;;;;;5093644;28;1936;-68
2023/08/06 10:18:36;;;;;;;;;;;;;;;;;;5094079;28;821;-68
2023/08/06 10:21:02;;;;;;;;;;;;;;;;;;5093651;28;1224;-68
2023/08/06 10:23:38;;;;;;;;;;;;;;;;;;5093898;28;809;-67
2023/08/06 10:26:04;;;;;;;;;;;;;;;;;;5093707;28;899;-68
2023/08/06 10:28:38;;;;;;;;;;;;;;;;;;5093185;28;900;-66
2023/08/06 10:31:06;;;;;;;;;;;;;;;;;;5075410;28;895;-71
2023/08/06 10:33:48;;;;;;;;;;;;;;;;;;5092907;28;1129;-69
2023/08/06 10:36:14;;;;;;;;;;;;;;;;;;5093014;28;1964;-68
2023/08/06 10:38:46;;;;;;;;;;;;;;;;;;5094151;28;892;-68
2023/08/06 10:41:32;;;;;;;;;;;;;;;;;;5093566;28;796;-68
2023/08/06 10:44:08;;;;;;;;;;;;;;;;;;5093571;28;1954;-67
2023/08/06 10:46:33;;;;;;;;;;;;;;;;;;5075611;28;1361;-73
2023/08/06 10:48:59;;;;;;;;;;;;;;;;;;5075513;28;1598;-69
2023/08/06 10:51:24;;;;;;;;;;;;;;;;;;5093374;28;773;-71
2023/08/06 10:53:50;;;;;;;;;;;;;;;;;;5093602;28;793;-72
2023/08/06 10:56:20;;;;;;;;;;;;;;;;;;5091754;28;1906;-73
2023/08/06 10:58:46;;;;;;;;;;;;;;;;;;5092029;28;806;-73
2023/08/06 11:01:11;;;;;;;;;;;;;;;;;;5091902;28;1043;-73
2023/08/06 11:03:37;;;;;;;;;;;;;;;;;;5073827;28;849;-73
2023/08/06 11:06:02;;;;;;;;;;;;;;;;;;5092477;28;1144;-69
2023/08/06 11:08:28;;;;;;;;;;;;;;;;;;5092348;28;895;-71
2023/08/06 11:10:54;;;;;;;;;;;;;;;;;;5092350;28;990;-71
2023/08/06 11:13:22;;;;;;;;;;;;;;;;;;5091745;28;928;-71
2023/08/06 11:15:48;;;;;;;;;;;;;;;;;;5092108;28;1955;-71
2023/08/06 11:18:13;;;;;;;;;;;;;;;;;;5092434;28;835;-71
2023/08/06 11:20:39;;;;;;;;;;;;;;;;;;5092261;28;1231;-71
2023/08/06 11:23:05;;;;;;;;;;;;;;;;;;5091923;28;896;-70
2023/08/06 11:25:30;;;;;;;;;;;;;;;;;;5092069;28;839;-71
2023/08/06 11:27:55;;;;;;;;;;;;;;;;;;5091039;28;970;-71
2023/08/06 11:30:20;;;;;;;;;;;;;;;;;;5090312;28;919;-71
2023/08/06 11:32:49;;;;;;;;;;;;;;;;;;5090138;28;967;-71
2023/08/06 11:35:15;;;;;;;;;;;;;;;;;;5089827;28;901;-71
2023/08/06 11:37:43;;;;;;;;;;;;;;;;;;5089677;28;1973;-71
2023/08/06 11:40:10;;;;;;;;;;;;;;;;;;5089412;28;884;-71
2023/08/06 11:42:36;;;;;;;;;;;;;;;;;;5091035;28;848;-70
2023/08/06 11:45:02;;;;;;;;;;;;;;;;;;5090911;28;892;-67
2023/08/06 11:47:27;;;;;;;;;;;;;;;;;;5091482;28;1015;-67
2023/08/06 11:49:53;;;;;;;;;;;;;;;;;;5073909;28;896;-67
2023/08/06 11:52:23;;;;;;;;;;;;;;;;;;5091121;28;879;-67
2023/08/06 11:55:01;;;;;;;;;;;;;;;;;;5056788;28;849;-67
2023/08/06 11:57:26;;;;;;;;;;;;;;;;;;5092352;28;1963;-67
2023/08/06 11:59:51;;;;;;;;;;;;;;;;;;5074150;28;1263;-67
2023/08/06 12:02:17;;;;;;;;;;;;;;;;;;5090192;28;1179;-67
2023/08/06 12:05:01;;;;;;;;;;;;;;;;;;5089974;28;1299;-68
2023/08/06 12:07:30;;;;;;;;;;;;;;;;;;5092293;28;868;-67
2023/08/06 12:09:55;;;;;;;;;;;;;;;;;;5092410;28;1034;-68
2023/08/06 12:12:21;;;;;;;;;;;;;;;;;;5074034;28;860;-67
2023/08/06 12:14:46;;;;;;;;;;;;;;;;;;5092195;28;828;-67
2023/08/06 12:17:11;;;;;;;;;;;;;;;;;;5091897;28;1969;-67
2023/08/06 12:19:37;;;;;;;;;;;;;;;;;;5091433;28;844;-68
2023/08/06 12:22:02;;;;;;;;;;;;;;;;;;5090470;28;1274;-67
2023/08/06 12:24:31;;;;;;;;;;;;;;;;;;5091250;28;840;-67
2023/08/06 12:26:57;;;;;;;;;;;;;;;;;;5073642;28;991;-68
2023/08/06 12:29:23;;;;;;;;;;;;;;;;;;5090562;28;1239;-67
2023/08/06 12:31:48;;;;;;;;;;;;;;;;;;5090843;28;850;-68
2023/08/06 12:34:13;;;;;;;;;;;;;;;;;;5072831;28;1697;-67
2023/08/06 12:36:39;;;;;;;;;;;;;;;;;;5090692;28;1999;-67
2023/08/06 12:39:04;;;;;;;;;;;;;;;;;;5090587;28;876;-67
2023/08/06 12:41:29;;;;;;;;;;;;;;;;;;5073033;28;924;-67
2023/08/06 12:43:55;;;;;;;;;;;;;;;;;;5091269;28;1031;-67
2023/08/06 12:46:20;;;;;;;;;;;;;;;;;;5091142;28;813;-65
2023/08/06 12:48:45;;;;;;;;;;;;;;;;;;5090561;28;908;-66
2023/08/06 12:51:10;;;;;;;;;;;;;;;;;;5090840;28;880;-65
2023/08/06 12:53:36;;;;;;;;;;;;;;;;;;5090760;28;885;-65
2023/08/06 12:56:01;;;;;;;;;;;;;;;;;;5090777;28;1902;-65
2023/08/06 12:58:26;;;;;;;;;;;;;;;;;;5090930;28;860;-65
2023/08/06 13:00:52;;;;;;;;;;;;;;;;;;5090757;28;872;-65
2023/08/06 13:03:17;;;;;;;;;;;;;;;;;;5090393;28;833;-65
2023/08/06 13:05:44;;;;;;;;;;;;;;;;;;5090330;28;821;-66
2023/08/06 13:08:09;;;;;;;;;;;;;;;;;;5090992;28;878;-67
2023/08/06 13:10:34;;;;;;;;;;;;;;;;;;5090482;28;1154;-67
2023/08/06 13:12:59;;;;;;;;;;;;;;;;;;5090461;28;868;-67
2023/08/06 13:15:25;;;;;;;;;;;;;;;;;;5090727;28;845;-67
2023/08/06 13:17:51;;;;;;;;;;;;;;;;;;5090405;28;1883;-67
2023/08/06 13:20:18;;;;;;;;;;;;;;;;;;5072359;28;1124;-67
2023/08/06 13:22:46;;;;;;;;;;;;;;;;;;5090547;28;887;-68
2023/08/06 13:25:11;;;;;;;;;;;;;;;;;;5090810;28;1384;-67
2023/08/06 13:27:36;;;;;;;;;;;;;;;;;;5094074;28;1214;-68
2023/08/06 13:30:02;;;;;;;;;;;;;;;;;;5094233;28;982;-68
2023/08/06 13:32:28;;;;;;;;;;;;;;;;;;5094392;28;910;-68
2023/08/06 13:34:53;;;;;;;;;;;;;;;;;;5094374;28;813;-67
2023/08/06 13:37:18;;;;;;;;;;;;;;;;;;5093998;28;1906;-67
2023/08/06 13:39:44;;;;;;;;;;;;;;;;;;5094594;28;963;-67
2023/08/06 13:42:09;;;;;;;;;;;;;;;;;;5094004;28;833;-67
2023/08/06 13:44:35;;;;;;;;;;;;;;;;;;5094488;28;958;-67
2023/08/06 13:47:01;;;;;;;;;;;;;;;;;;5094549;28;912;-67
2023/08/06 13:49:26;;;;;;;;;;;;;;;;;;5094657;28;892;-67
2023/08/06 13:51:51;;;;;;;;;;;;;;;;;;5093447;28;967;-67
2023/08/06 13:54:17;;;;;;;;;;;;;;;;;;5092294;28;991;-67
2023/08/06 13:56:42;;;;;;;;;;;;;;;;;;5092576;28;1894;-67
2023/08/06 13:59:08;;;;;;;;;;;;;;;;;;5092161;28;899;-67
2023/08/06 14:01:33;;;;;;;;;;;;;;;;;;5092464;28;1292;-67
2023/08/06 14:03:58;;;;;;;;;;;;;;;;;;5092940;28;829;-67
2023/08/06 14:06:23;;;;;;;;;;;;;;;;;;5093376;28;1003;-67
2023/08/06 14:08:49;;;;;;;;;;;;;;;;;;5075087;28;900;-67
2023/08/06 14:11:14;;;;;;;;;;;;;;;;;;5093348;28;951;-67
2023/08/06 14:13:39;;;;;;;;;;;;;;;;;;5093230;28;1101;-67
2023/08/06 14:16:05;;;;;;;;;;;;;;;;;;5093079;28;1949;-67
2023/08/06 14:18:30;;;;;;;;;;;;;;;;;;5092662;28;1199;-67
2023/08/06 14:20:55;;;;;;;;;;;;;;;;;;5074113;28;1303;-67
2023/08/06 14:23:20;;;;;;;;;;;;;;;;;;5092806;28;813;-67
2023/08/06 14:25:46;;;;;;;;;;;;;;;;;;5093081;28;979;-67
2023/08/06 14:28:12;;;;;;;;;;;;;;;;;;5091476;28;1370;-67
2023/08/06 14:30:37;;;;;;;;;;;;;;;;;;5093315;28;859;-67
2023/08/06 14:33:03;;;;;;;;;;;;;;;;;;5093431;28;891;-67
2023/08/06 14:35:28;;;;;;;;;;;;;;;;;;5093397;28;836;-68
2023/08/06 14:37:53;;;;;;;;;;;;;;;;;;5093236;28;1918;-67
2023/08/06 14:40:18;;;;;;;;;;;;;;;;;;5092956;28;852;-67
2023/08/06 14:42:44;;;;;;;;;;;;;;;;;;5093129;28;840;-67
2023/08/06 14:45:09;;;;;;;;;;;;;;;;;;5092543;28;962;-67
2023/08/06 14:47:34;;;;;;;;;;;;;;;;;;5092908;28;1185;-67
2023/08/06 14:50:00;;;;;;;;;;;;;;;;;;5074272;28;892;-68
2023/08/06 14:52:25;;;;;;;;;;;;;;;;;;5092545;28;955;-67
2023/08/06 14:54:52;;;;;;;;;;;;;;;;;;5092690;28;836;-67
2023/08/06 14:57:17;;;;;;;;;;;;;;;;;;5092296;28;1906;-67
2023/08/06 14:59:43;;;;;;;;;;;;;;;;;;5092763;28;876;-67
2023/08/06 15:02:08;;;;;;;;;;;;;;;;;;5091928;28;896;-68
2023/08/06 15:04:33;;;;;;;;;;;;;;;;;;5093043;28;1133;-68
2023/08/06 15:06:58;;;;;;;;;;;;;;;;;;5092694;28;899;-68
2023/08/06 15:09:24;;;;;;;;;;;;;;;;;;5092893;28;923;-68
2023/08/06 15:11:49;;;;;;;;;;;;;;;;;;5092600;28;1083;-67
2023/08/06 15:14:14;;;;;;;;;;;;;;;;;;5092713;28;855;-68
2023/08/06 15:16:40;;;;;;;;;;;;;;;;;;5092655;28;1961;-67
2023/08/06 15:19:05;;;;;;;;;;;;;;;;;;5092302;28;1030;-67
2023/08/06 15:21:31;;;;;;;;;;;;;;;;;;5092682;28;1104;-67
2023/08/06 15:23:56;;;;;;;;;;;;;;;;;;5092966;28;844;-67
2023/08/06 15:26:21;;;;;;;;;;;;;;;;;;5093243;28;872;-67
2023/08/06 15:28:46;;;;;;;;;;;;;;;;;;5093749;28;971;-67
2023/08/06 15:31:12;;;;;;;;;;;;;;;;;;5093264;28;888;-67
2023/08/06 15:33:37;;;;;;;;;;;;;;;;;;5093165;28;875;-67
2023/08/06 15:36:02;;;;;;;;;;;;;;;;;;5074085;28;1894;-67
2023/08/06 15:38:27;;;;;;;;;;;;;;;;;;5090664;28;948;-67
2023/08/06 15:40:53;;;;;;;;;;;;;;;;;;5092853;28;844;-68
2023/08/06 15:43:18;;;;;;;;;;;;;;;;;;5092426;28;880;-67
2023/08/06 15:45:44;;;;;;;;;;;;;;;;;;5092922;28;1066;-67
2023/08/06 15:48:09;;;;;;;;;;;;;;;;;;5091965;28;888;-68
2023/08/06 15:50:36;;;;;;;;;;;;;;;;;;5091403;28;998;-68
2023/08/06 15:53:02;;;;;;;;;;;;;;;;;;5091607;28;844;-68
2023/08/06 15:55:28;;;;;;;;;;;;;;;;;;5091233;28;1183;-68
2023/08/06 15:57:53;;;;;;;;;;;;;;;;;;5091357;28;1902;-68
2023/08/06 16:00:18;;;;;;;;;;;;;;;;;;5091310;28;829;-68
2023/08/06 16:02:44;;;;;;;;;;;;;;;;;;5091397;28;926;-68
2023/08/06 16:05:09;;;;;;;;;;;;;;;;;;5090703;28;904;-68
2023/08/06 16:07:35;;;;;;;;;;;;;;;;;;5091558;28;904;-68
2023/08/06 16:10:00;;;;;;;;;;;;;;;;;;5091201;28;926;-68
2023/08/06 16:12:25;;;;;;;;;;;;;;;;;;5091253;28;892;-71
2023/08/06 16:14:51;;;;;;;;;;;;;;;;;;5091012;28;959;-71
2023/08/06 16:17:16;;;;;;;;;;;;;;;;;;5090949;28;1894;-71
2023/08/06 16:19:42;;;;;;;;;;;;;;;;;;5072939;28;1219;-71
2023/08/06 16:22:08;;;;;;;;;;;;;;;;;;5090422;28;1118;-71
2023/08/06 16:24:33;;;;;;;;;;;;;;;;;;5091507;28;809;-71
2023/08/06 16:26:59;;;;;;;;;;;;;;;;;;5090941;28;927;-71
2023/08/06 16:29:24;;;;;;;;;;;;;;;;;;5090964;28;1174;-71
2023/08/06 16:31:49;;;;;;;;;;;;;;;;;;5090814;28;887;-71
2023/08/06 16:34:14;;;;;;;;;;;;;;;;;;5090653;28;1006;-71
2023/08/06 16:36:40;;;;;;;;;;;;;;;;;;5091742;28;1902;-71
2023/08/06 16:39:05;;;;;;;;;;;;;;;;;;5090951;28;1172;-71
2023/08/06 16:41:31;;;;;;;;;;;;;;;;;;5091447;28;903;-71
2023/08/06 16:43:56;;;;;;;;;;;;;;;;;;5091306;28;840;-71
2023/08/06 16:46:21;;;;;;;;;;;;;;;;;;5090677;28;808;-72
2023/08/06 16:48:47;;;;;;;;;;;;;;;;;;5091629;28;923;-70
2023/08/06 16:51:13;;;;;;;;;;;;;;;;;;5091061;28;880;-69
2023/08/06 16:53:38;;;;;;;;;;;;;;;;;;5091267;28;904;-69
2023/08/06 16:56:03;;;;;;;;;;;;;;;;;;5090994;28;1901;-69
2023/08/06 16:58:29;;;;;;;;;;;;;;;;;;5091460;28;956;-69
2023/08/06 17:00:55;;;;;;;;;;;;;;;;;;5092532;28;884;-70
2023/08/06 17:03:21;;;;;;;;;;;;;;;;;;5076884;28;897;-71
2023/08/06 17:05:46;;;;;;;;;;;;;;;;;;5095637;28;902;-69